sensor_id;sensor_type;location;lat;lon;timestamp;pressure;altitude;pressure_sealevel;temperature;humidity
21240;BME280;10778;48.962;9.018;2023-03-01T00:02:13;99940.06;;;-3.01;87.20
21240;BME280;10778;48.962;9.018;2023-03-01T00:04:39;99935.81;;;-3.02;88.27
21240;BME280;10778;48.962;9.018;2023-03-01T00:07:05;99938.41;;;-3.03;87.84
21240;BME280;10778;48.962;9.018;2023-03-01T00:09:31;99938.47;;;-3.06;88.03
21240;BME280;10778;48.962;9.018;2023-03-01T00:11:58;99939.34;;;-3.09;88.14
21240;BME280;10778;48.962;9.018;2023-03-01T00:14:24;99941.84;;;-3.04;88.73
21240;BME280;10778;48.962;9.018;2023-03-01T00:16:50;99938.97;;;-2.89;87.38
21240;BME280;10778;48.962;9.018;2023-03-01T00:19:18;99939.63;;;-2.79;87.09
21240;BME280;10778;48.962;9.018;2023-03-01T00:21:44;99940.56;;;-2.81;86.61
21240;BME280;10778;48.962;9.018;2023-03-01T00:24:11;99944.59;;;-2.71;85.79
21240;BME280;10778;48.962;9.018;2023-03-01T00:26:37;99939.69;;;-2.82;85.85
21240;BME280;10778;48.962;9.018;2023-03-01T00:29:03;99942.41;;;-2.90;87.21
21240;BME280;10778;48.962;9.018;2023-03-01T00:31:31;99939.09;;;-2.95;87.60
21240;BME280;10778;48.962;9.018;2023-03-01T00:34:00;99949.34;;;-2.93;87.72
21240;BME280;10778;48.962;9.018;2023-03-01T00:36:32;99955.28;;;-2.90;87.40
21240;BME280;10778;48.962;9.018;2023-03-01T00:38:59;99951.03;;;-2.91;87.12
21240;BME280;10778;48.962;9.018;2023-03-01T00:41:26;99943.16;;;-2.84;87.16
21240;BME280;10778;48.962;9.018;2023-03-01T00:43:53;99941.44;;;-2.82;86.69
21240;BME280;10778;48.962;9.018;2023-03-01T00:46:21;99942.84;;;-2.69;85.75
21240;BME280;10778;48.962;9.018;2023-03-01T00:48:49;99945.41;;;-2.69;85.40
21240;BME280;10778;48.962;9.018;2023-03-01T00:51:17;99945.78;;;-2.86;85.60
21240;BME280;10778;48.962;9.018;2023-03-01T00:53:45;99941.53;;;-2.89;87.07
21240;BME280;10778;48.962;9.018;2023-03-01T00:56:12;99943.22;;;-2.88;87.52
21240;BME280;10778;48.962;9.018;2023-03-01T00:58:39;99944.16;;;-2.90;88.21
21240;BME280;10778;48.962;9.018;2023-03-01T01:01:17;99940.78;;;-2.94;87.96
21240;BME280;10778;48.962;9.018;2023-03-01T01:03:48;99935.56;;;-2.91;87.43
21240;BME280;10778;48.962;9.018;2023-03-01T01:06:19;99937.97;;;-2.81;86.41
21240;BME280;10778;48.962;9.018;2023-03-01T01:08:46;99933.63;;;-2.79;86.20
21240;BME280;10778;48.962;9.018;2023-03-01T01:11:13;99932.81;;;-2.81;87.09
21240;BME280;10778;48.962;9.018;2023-03-01T01:13:40;99940.56;;;-2.83;86.51
21240;BME280;10778;48.962;9.018;2023-03-01T01:16:07;99933.75;;;-2.86;87.23
21240;BME280;10778;48.962;9.018;2023-03-01T01:18:34;99939.00;;;-2.90;87.39
21240;BME280;10778;48.962;9.018;2023-03-01T01:21:08;99930.50;;;-2.94;87.24
21240;BME280;10778;48.962;9.018;2023-03-01T01:23:34;99930.41;;;-2.89;86.46
21240;BME280;10778;48.962;9.018;2023-03-01T01:26:10;99934.03;;;-2.98;87.08
21240;BME280;10778;48.962;9.018;2023-03-01T01:28:37;99931.47;;;-3.00;87.20
21240;BME280;10778;48.962;9.018;2023-03-01T01:31:03;99925.53;;;-3.03;88.12
21240;BME280;10778;48.962;9.018;2023-03-01T01:33:30;99926.44;;;-3.06;87.54
21240;BME280;10778;48.962;9.018;2023-03-01T01:35:56;99917.13;;;-3.13;88.17
21240;BME280;10778;48.962;9.018;2023-03-01T01:38:22;99913.69;;;-3.12;87.98
21240;BME280;10778;48.962;9.018;2023-03-01T01:40:49;99914.56;;;-3.11;87.81
21240;BME280;10778;48.962;9.018;2023-03-01T01:43:34;99907.94;;;-3.23;88.05
21240;BME280;10778;48.962;9.018;2023-03-01T01:46:50;99903.59;;;-3.23;87.96
21240;BME280;10778;48.962;9.018;2023-03-01T01:49:00;99902.78;;;-3.23;89.17
21240;BME280;10778;48.962;9.018;2023-03-01T01:51:31;99898.41;;;-3.20;89.02
21240;BME280;10778;48.962;9.018;2023-03-01T01:54:19;99901.69;;;-3.11;87.84
21240;BME280;10778;48.962;9.018;2023-03-01T01:56:55;99899.19;;;-3.16;87.88
21240;BME280;10778;48.962;9.018;2023-03-01T01:59:24;99894.03;;;-3.16;88.42
21240;BME280;10778;48.962;9.018;2023-03-01T02:01:54;99891.59;;;-3.22;88.39
21240;BME280;10778;48.962;9.018;2023-03-01T02:04:20;99897.66;;;-3.25;88.98
21240;BME280;10778;48.962;9.018;2023-03-01T02:07:17;99888.97;;;-3.19;88.19
21240;BME280;10778;48.962;9.018;2023-03-01T02:09:47;99879.53;;;-3.20;87.53
21240;BME280;10778;48.962;9.018;2023-03-01T02:12:19;99877.94;;;-3.26;88.36
21240;BME280;10778;48.962;9.018;2023-03-01T02:14:46;99874.66;;;-3.34;88.94
21240;BME280;10778;48.962;9.018;2023-03-01T02:17:14;99876.47;;;-3.39;88.48
21240;BME280;10778;48.962;9.018;2023-03-01T02:22:32;99860.38;;;-3.49;89.39
21240;BME280;10778;48.962;9.018;2023-03-01T02:30:45;99847.88;;;-3.66;89.28
21240;BME280;10778;48.962;9.018;2023-03-01T02:33:32;99847.81;;;-3.63;89.97
21240;BME280;10778;48.962;9.018;2023-03-01T02:36:03;99850.47;;;-3.69;90.55
21240;BME280;10778;48.962;9.018;2023-03-01T02:38:31;99841.13;;;-3.72;90.57
21240;BME280;10778;48.962;9.018;2023-03-01T02:40:58;99841.94;;;-3.70;91.02
21240;BME280;10778;48.962;9.018;2023-03-01T02:43:29;99837.72;;;-3.74;90.46
21240;BME280;10778;48.962;9.018;2023-03-01T02:46:22;99831.88;;;-3.82;90.72
21240;BME280;10778;48.962;9.018;2023-03-01T02:48:51;99835.16;;;-3.76;90.79
21240;BME280;10778;48.962;9.018;2023-03-01T02:56:50;99830.19;;;-3.39;89.86
21240;BME280;10778;48.962;9.018;2023-03-01T02:59:26;99826.72;;;-3.38;89.13
21240;BME280;10778;48.962;9.018;2023-03-01T03:01:53;99835.31;;;-3.39;88.97
21240;BME280;10778;48.962;9.018;2023-03-01T03:04:19;99836.94;;;-3.34;89.32
21240;BME280;10778;48.962;9.018;2023-03-01T03:06:50;99837.09;;;-3.41;89.18
21240;BME280;10778;48.962;9.018;2023-03-01T03:09:17;99829.44;;;-3.45;89.51
21240;BME280;10778;48.962;9.018;2023-03-01T03:11:45;99832.84;;;-3.44;90.33
21240;BME280;10778;48.962;9.018;2023-03-01T03:14:14;99833.63;;;-3.40;90.15
21240;BME280;10778;48.962;9.018;2023-03-01T03:16:48;99825.00;;;-3.38;90.53
21240;BME280;10778;48.962;9.018;2023-03-01T03:19:16;99829.22;;;-3.34;90.21
21240;BME280;10778;48.962;9.018;2023-03-01T03:21:43;99822.28;;;-3.30;90.47
21240;BME280;10778;48.962;9.018;2023-03-01T03:24:09;99823.09;;;-3.30;90.21
21240;BME280;10778;48.962;9.018;2023-03-01T03:26:35;99812.72;;;-3.23;90.21
21240;BME280;10778;48.962;9.018;2023-03-01T03:29:01;99813.53;;;-3.23;89.98
21240;BME280;10778;48.962;9.018;2023-03-01T03:31:27;99817.00;;;-3.24;89.86
21240;BME280;10778;48.962;9.018;2023-03-01T03:33:54;99810.00;;;-3.19;90.45
21240;BME280;10778;48.962;9.018;2023-03-01T03:36:23;99813.44;;;-3.18;90.40
21240;BME280;10778;48.962;9.018;2023-03-01T03:38:49;99808.28;;;-3.17;91.08
21240;BME280;10778;48.962;9.018;2023-03-01T03:41:16;99812.47;;;-3.12;90.12
21240;BME280;10778;48.962;9.018;2023-03-01T03:43:42;99808.88;;;-3.05;90.87
21240;BME280;10778;48.962;9.018;2023-03-01T03:46:10;99804.56;;;-3.05;90.60
21240;BME280;10778;48.962;9.018;2023-03-01T03:48:40;99802.00;;;-3.05;89.78
21240;BME280;10778;48.962;9.018;2023-03-01T03:51:07;99794.16;;;-3.00;89.58
21240;BME280;10778;48.962;9.018;2023-03-01T03:53:35;99795.63;;;-2.88;89.14
21240;BME280;10778;48.962;9.018;2023-03-01T03:56:01;99795.66;;;-2.90;88.63
21240;BME280;10778;48.962;9.018;2023-03-01T03:58:27;99796.59;;;-2.94;87.89
21240;BME280;10778;48.962;9.018;2023-03-01T04:00:56;99797.41;;;-2.92;88.33
21240;BME280;10778;48.962;9.018;2023-03-01T04:03:25;99797.41;;;-2.90;88.10
21240;BME280;10778;48.962;9.018;2023-03-01T04:05:52;99796.50;;;-2.89;88.86
21240;BME280;10778;48.962;9.018;2023-03-01T04:08:22;99785.38;;;-2.91;88.49
21240;BME280;10778;48.962;9.018;2023-03-01T04:10:51;99788.00;;;-2.93;88.81
21240;BME280;10778;48.962;9.018;2023-03-01T04:13:20;99777.69;;;-2.93;88.75
21240;BME280;10778;48.962;9.018;2023-03-01T04:15:54;99783.66;;;-2.91;89.09
21240;BME280;10778;48.962;9.018;2023-03-01T04:18:22;99782.00;;;-2.93;89.75
21240;BME280;10778;48.962;9.018;2023-03-01T04:20:49;99780.31;;;-2.94;89.80
21240;BME280;10778;48.962;9.018;2023-03-01T04:23:19;99775.38;;;-3.04;89.66
21240;BME280;10778;48.962;9.018;2023-03-01T04:28:24;99779.75;;;-3.07;90.45
21240;BME280;10778;48.962;9.018;2023-03-01T04:30:52;99773.78;;;-3.09;89.83
21240;BME280;10778;48.962;9.018;2023-03-01T04:33:18;99776.38;;;-3.11;90.14
21240;BME280;10778;48.962;9.018;2023-03-01T04:35:44;99779.84;;;-3.12;89.90
21240;BME280;10778;48.962;9.018;2023-03-01T04:38:11;99774.81;;;-3.17;90.75
21240;BME280;10778;48.962;9.018;2023-03-01T04:40:37;99779.19;;;-3.20;91.16
21240;BME280;10778;48.962;9.018;2023-03-01T04:43:04;99777.59;;;-3.28;90.65
21240;BME280;10778;48.962;9.018;2023-03-01T04:45:32;99778.59;;;-3.33;91.52
21240;BME280;10778;48.962;9.018;2023-03-01T04:47:58;99776.06;;;-3.36;91.10
21240;BME280;10778;48.962;9.018;2023-03-01T04:50:24;99778.88;;;-3.47;90.57
21240;BME280;10778;48.962;9.018;2023-03-01T04:52:51;99788.19;;;-3.41;91.95
21240;BME280;10778;48.962;9.018;2023-03-01T04:55:18;99780.69;;;-3.51;92.08
21240;BME280;10778;48.962;9.018;2023-03-01T04:57:44;99793.88;;;-3.66;92.87
21240;BME280;10778;48.962;9.018;2023-03-01T05:00:12;99789.69;;;-3.74;93.79
21240;BME280;10778;48.962;9.018;2023-03-01T05:02:53;99795.78;;;-3.78;94.88
21240;BME280;10778;48.962;9.018;2023-03-01T05:05:21;99796.53;;;-3.73;93.62
21240;BME280;10778;48.962;9.018;2023-03-01T05:07:47;99788.72;;;-3.66;92.75
21240;BME280;10778;48.962;9.018;2023-03-01T05:10:13;99789.91;;;-3.84;93.41
21240;BME280;10778;48.962;9.018;2023-03-01T05:12:39;99782.34;;;-3.91;94.10
21240;BME280;10778;48.962;9.018;2023-03-01T05:15:06;99786.66;;;-3.93;94.90
21240;BME280;10778;48.962;9.018;2023-03-01T05:17:33;99796.19;;;-4.00;95.40
21240;BME280;10778;48.962;9.018;2023-03-01T05:20:00;99784.13;;;-3.96;94.82
21240;BME280;10778;48.962;9.018;2023-03-01T05:22:26;99790.19;;;-3.98;94.94
21240;BME280;10778;48.962;9.018;2023-03-01T05:24:53;99780.63;;;-3.92;94.63
21240;BME280;10778;48.962;9.018;2023-03-01T05:27:19;99784.78;;;-3.86;94.44
21240;BME280;10778;48.962;9.018;2023-03-01T05:29:48;99785.66;;;-3.87;94.57
21240;BME280;10778;48.962;9.018;2023-03-01T05:32:14;99781.16;;;-3.76;93.95
21240;BME280;10778;48.962;9.018;2023-03-01T05:34:41;99782.84;;;-3.73;93.68
21240;BME280;10778;48.962;9.018;2023-03-01T05:37:07;99770.81;;;-3.71;93.24
21240;BME280;10778;48.962;9.018;2023-03-01T05:39:34;99775.19;;;-3.76;93.49
21240;BME280;10778;48.962;9.018;2023-03-01T05:42:01;99774.50;;;-3.84;93.58
21240;BME280;10778;48.962;9.018;2023-03-01T05:44:28;99777.88;;;-3.82;93.65
21240;BME280;10778;48.962;9.018;2023-03-01T05:46:55;99775.31;;;-3.82;93.53
21240;BME280;10778;48.962;9.018;2023-03-01T05:49:21;99780.34;;;-3.76;93.45
21240;BME280;10778;48.962;9.018;2023-03-01T05:51:52;99766.88;;;-1.72;100.00
21240;BME280;10778;48.962;9.018;2023-03-01T05:54:20;99775.16;;;-1.92;100.00
21240;BME280;10778;48.962;9.018;2023-03-01T05:56:46;99777.66;;;-1.89;100.00
21240;BME280;10778;48.962;9.018;2023-03-01T05:59:12;99771.63;;;-1.58;97.64
21240;BME280;10778;48.962;9.018;2023-03-01T06:01:39;99769.41;;;-1.40;94.28
21240;BME280;10778;48.962;9.018;2023-03-01T06:04:05;99765.81;;;-1.34;91.89
21240;BME280;10778;48.962;9.018;2023-03-01T06:06:35;99772.75;;;-1.66;88.45
21240;BME280;10778;48.962;9.018;2023-03-01T06:09:06;99776.47;;;-1.47;88.95
21240;BME280;10778;48.962;9.018;2023-03-01T06:11:36;99770.81;;;-0.99;89.20
21240;BME280;10778;48.962;9.018;2023-03-01T06:14:03;99772.00;;;-1.11;85.40
21240;BME280;10778;48.962;9.018;2023-03-01T06:16:29;99771.25;;;-0.87;84.08
21240;BME280;10778;48.962;9.018;2023-03-01T06:18:55;99768.22;;;-0.73;84.05
21240;BME280;10778;48.962;9.018;2023-03-01T06:21:21;99767.78;;;-0.86;79.71
21240;BME280;10778;48.962;9.018;2023-03-01T06:23:47;99771.63;;;-0.99;80.56
21240;BME280;10778;48.962;9.018;2023-03-01T06:26:13;99768.53;;;-1.69;81.88
21240;BME280;10778;48.962;9.018;2023-03-01T06:28:39;99772.59;;;-2.25;84.02
21240;BME280;10778;48.962;9.018;2023-03-01T06:31:05;99775.22;;;-2.26;85.35
21240;BME280;10778;48.962;9.018;2023-03-01T06:33:34;99777.63;;;-2.53;86.41
21240;BME280;10778;48.962;9.018;2023-03-01T06:36:01;99770.66;;;-2.50;85.18
21240;BME280;10778;48.962;9.018;2023-03-01T06:38:28;99776.44;;;-2.40;87.37
21240;BME280;10778;48.962;9.018;2023-03-01T06:40:54;99768.38;;;-2.62;87.09
21240;BME280;10778;48.962;9.018;2023-03-01T06:43:23;99764.38;;;-2.74;87.49
21240;BME280;10778;48.962;9.018;2023-03-01T06:45:49;99764.81;;;-2.57;87.66
21240;BME280;10778;48.962;9.018;2023-03-01T06:48:15;99763.66;;;-2.45;87.49
21240;BME280;10778;48.962;9.018;2023-03-01T06:50:41;99763.09;;;-2.23;85.82
21240;BME280;10778;48.962;9.018;2023-03-01T06:53:07;99756.84;;;-2.14;86.38
21240;BME280;10778;48.962;9.018;2023-03-01T06:55:33;99758.28;;;-2.02;86.26
21240;BME280;10778;48.962;9.018;2023-03-01T06:58:00;99762.75;;;-2.09;84.92
21240;BME280;10778;48.962;9.018;2023-03-01T07:00:27;99760.19;;;-2.10;85.51
21240;BME280;10778;48.962;9.018;2023-03-01T07:02:53;99751.06;;;-1.59;84.49
21240;BME280;10778;48.962;9.018;2023-03-01T07:05:19;99753.00;;;-0.30;80.17
21240;BME280;10778;48.962;9.018;2023-03-01T07:07:46;99750.00;;;0.56;76.02
21240;BME280;10778;48.962;9.018;2023-03-01T07:10:12;99742.63;;;1.34;70.75
21240;BME280;10778;48.962;9.018;2023-03-01T07:12:38;99736.66;;;1.74;69.38
21240;BME280;10778;48.962;9.018;2023-03-01T07:15:05;99743.97;;;2.24;67.31
21240;BME280;10778;48.962;9.018;2023-03-01T07:17:31;99743.78;;;2.48;65.18
21240;BME280;10778;48.962;9.018;2023-03-01T07:19:57;99727.72;;;3.13;63.38
21240;BME280;10778;48.962;9.018;2023-03-01T07:22:23;99729.41;;;3.50;60.82
21240;BME280;10778;48.962;9.018;2023-03-01T07:24:49;99725.47;;;3.94;60.95
21240;BME280;10778;48.962;9.018;2023-03-01T07:27:15;99723.78;;;3.93;59.38
21240;BME280;10778;48.962;9.018;2023-03-01T07:29:41;99723.13;;;4.05;58.18
21240;BME280;10778;48.962;9.018;2023-03-01T07:32:07;99719.50;;;5.20;55.75
21240;BME280;10778;48.962;9.018;2023-03-01T07:34:33;99723.34;;;4.50;56.52
21240;BME280;10778;48.962;9.018;2023-03-01T07:36:59;99722.56;;;4.16;58.15
21240;BME280;10778;48.962;9.018;2023-03-01T07:39:25;99718.81;;;3.88;58.16
21240;BME280;10778;48.962;9.018;2023-03-01T07:41:51;99719.66;;;4.22;58.13
21240;BME280;10778;48.962;9.018;2023-03-01T07:44:21;99722.53;;;4.82;55.72
21240;BME280;10778;48.962;9.018;2023-03-01T07:46:47;99715.38;;;4.69;56.33
21240;BME280;10778;48.962;9.018;2023-03-01T07:49:13;99720.75;;;4.34;56.82
21240;BME280;10778;48.962;9.018;2023-03-01T07:51:39;99711.81;;;4.87;56.16
21240;BME280;10778;48.962;9.018;2023-03-01T07:54:05;99720.00;;;4.48;55.57
21240;BME280;10778;48.962;9.018;2023-03-01T07:56:31;99712.94;;;4.50;55.85
21240;BME280;10778;48.962;9.018;2023-03-01T07:58:59;99716.41;;;5.13;54.70
21240;BME280;10778;48.962;9.018;2023-03-01T08:01:25;99708.72;;;4.64;55.09
21240;BME280;10778;48.962;9.018;2023-03-01T08:03:51;99706.97;;;5.11;55.07
21240;BME280;10778;48.962;9.018;2023-03-01T08:06:18;99708.22;;;5.20;54.69
21240;BME280;10778;48.962;9.018;2023-03-01T08:08:45;99706.28;;;4.93;54.82
21240;BME280;10778;48.962;9.018;2023-03-01T08:11:12;99699.31;;;5.83;53.03
21240;BME280;10778;48.962;9.018;2023-03-01T08:13:38;99700.72;;;6.04;53.48
21240;BME280;10778;48.962;9.018;2023-03-01T08:16:07;99698.09;;;6.04;53.28
21240;BME280;10778;48.962;9.018;2023-03-01T08:18:33;99699.75;;;5.90;53.21
21240;BME280;10778;48.962;9.018;2023-03-01T08:21:04;99696.19;;;5.48;53.51
21240;BME280;10778;48.962;9.018;2023-03-01T08:23:31;99697.97;;;5.76;53.12
21240;BME280;10778;48.962;9.018;2023-03-01T08:26:09;99680.84;;;7.38;50.12
21240;BME280;10778;48.962;9.018;2023-03-01T08:28:36;99676.22;;;7.16;51.19
21240;BME280;10778;48.962;9.018;2023-03-01T08:31:02;99679.50;;;7.85;49.68
21240;BME280;10778;48.962;9.018;2023-03-01T08:33:28;99673.44;;;7.71;48.80
21240;BME280;10778;48.962;9.018;2023-03-01T08:36:04;99678.13;;;7.66;49.60
21240;BME280;10778;48.962;9.018;2023-03-01T08:38:35;99683.97;;;7.95;49.46
21240;BME280;10778;48.962;9.018;2023-03-01T08:41:04;99685.63;;;7.06;50.02
21240;BME280;10778;48.962;9.018;2023-03-01T08:43:30;99691.78;;;6.08;52.14
21240;BME280;10778;48.962;9.018;2023-03-01T08:45:57;99685.03;;;6.60;50.53
21240;BME280;10778;48.962;9.018;2023-03-01T08:48:23;99681.69;;;7.78;49.16
21240;BME280;10778;48.962;9.018;2023-03-01T08:50:49;99672.56;;;8.47;48.24
21240;BME280;10778;48.962;9.018;2023-03-01T08:53:15;99673.72;;;8.05;48.67
21240;BME280;10778;48.962;9.018;2023-03-01T08:55:41;99665.56;;;7.84;49.27
21240;BME280;10778;48.962;9.018;2023-03-01T08:58:07;99666.41;;;7.72;49.17
21240;BME280;10778;48.962;9.018;2023-03-01T09:00:33;99664.00;;;8.93;47.56
21240;BME280;10778;48.962;9.018;2023-03-01T09:03:01;99654.91;;;8.62;47.74
21240;BME280;10778;48.962;9.018;2023-03-01T09:05:27;99654.25;;;10.11;44.95
21240;BME280;10778;48.962;9.018;2023-03-01T09:07:53;99662.78;;;9.22;45.53
21240;BME280;10778;48.962;9.018;2023-03-01T09:10:19;99656.06;;;8.82;47.12
21240;BME280;10778;48.962;9.018;2023-03-01T09:12:45;99659.47;;;8.95;46.86
21240;BME280;10778;48.962;9.018;2023-03-01T09:15:11;99660.31;;;8.72;47.04
21240;BME280;10778;48.962;9.018;2023-03-01T09:17:37;99654.41;;;8.81;46.95
21240;BME280;10778;48.962;9.018;2023-03-01T09:20:03;99650.16;;;8.67;47.10
21240;BME280;10778;48.962;9.018;2023-03-01T09:22:33;99640.56;;;8.79;47.02
21240;BME280;10778;48.962;9.018;2023-03-01T09:25:00;99643.56;;;9.33;47.73
21240;BME280;10778;48.962;9.018;2023-03-01T09:27:26;99638.50;;;9.88;45.78
21240;BME280;10778;48.962;9.018;2023-03-01T09:29:52;99623.00;;;10.41;44.15
21240;BME280;10778;48.962;9.018;2023-03-01T09:32:18;99628.75;;;10.34;44.64
21240;BME280;10778;48.962;9.018;2023-03-01T09:34:44;99626.97;;;10.23;44.48
21240;BME280;10778;48.962;9.018;2023-03-01T09:37:39;99607.50;;;10.15;44.27
21240;BME280;10778;48.962;9.018;2023-03-01T09:40:14;99614.19;;;10.07;44.51
21240;BME280;10778;48.962;9.018;2023-03-01T09:43:04;99622.25;;;10.38;43.28
21240;BME280;10778;48.962;9.018;2023-03-01T09:45:39;99618.59;;;10.74;44.53
21240;BME280;10778;48.962;9.018;2023-03-01T09:48:16;99612.19;;;9.65;44.98
21240;BME280;10778;48.962;9.018;2023-03-01T09:50:44;99603.81;;;10.61;44.26
21240;BME280;10778;48.962;9.018;2023-03-01T09:55:48;99604.72;;;8.42;47.69
21240;BME280;10778;48.962;9.018;2023-03-01T10:06:24;99588.66;;;9.18;45.53
21240;BME280;10778;48.962;9.018;2023-03-01T10:08:56;99594.19;;;9.49;45.30
21240;BME280;10778;48.962;9.018;2023-03-01T10:11:33;99580.84;;;10.19;44.28
21240;BME280;10778;48.962;9.018;2023-03-01T10:16:54;99577.16;;;10.10;45.04
21240;BME280;10778;48.962;9.018;2023-03-01T10:22:07;99578.53;;;7.67;48.83
21240;BME280;10778;48.962;9.018;2023-03-01T10:24:37;99575.06;;;9.24;47.58
21240;BME280;10778;48.962;9.018;2023-03-01T10:30:13;99588.09;;;7.93;49.54
21240;BME280;10778;48.962;9.018;2023-03-01T10:32:43;99579.09;;;9.17;47.63
21240;BME280;10778;48.962;9.018;2023-03-01T10:35:20;99564.28;;;8.93;46.26
21240;BME280;10778;48.962;9.018;2023-03-01T10:38:03;99569.06;;;9.22;47.32
21240;BME280;10778;48.962;9.018;2023-03-01T10:40:30;99557.75;;;8.63;47.13
21240;BME280;10778;48.962;9.018;2023-03-01T10:43:03;99562.81;;;8.78;47.23
21240;BME280;10778;48.962;9.018;2023-03-01T10:48:21;99553.28;;;8.04;48.46
21240;BME280;10778;48.962;9.018;2023-03-01T10:51:04;99561.31;;;8.62;48.85
21240;BME280;10778;48.962;9.018;2023-03-01T10:53:41;99557.97;;;8.60;48.58
21240;BME280;10778;48.962;9.018;2023-03-01T10:56:13;99549.25;;;8.60;47.92
21240;BME280;10778;48.962;9.018;2023-03-01T10:58:56;99554.78;;;8.44;47.60
21240;BME280;10778;48.962;9.018;2023-03-01T11:06:34;99538.19;;;8.56;48.29
21240;BME280;10778;48.962;9.018;2023-03-01T11:09:29;99532.16;;;8.18;48.83
21240;BME280;10778;48.962;9.018;2023-03-01T11:12:00;99534.28;;;7.76;49.64
21240;BME280;10778;48.962;9.018;2023-03-01T11:14:32;99521.59;;;8.31;49.78
21240;BME280;10778;48.962;9.018;2023-03-01T11:17:04;99520.25;;;8.97;48.37
21240;BME280;10778;48.962;9.018;2023-03-01T11:19:32;99512.25;;;8.87;48.20
21240;BME280;10778;48.962;9.018;2023-03-01T11:22:12;99511.00;;;7.47;49.59
21240;BME280;10778;48.962;9.018;2023-03-01T11:24:47;99497.03;;;7.72;50.80
21240;BME280;10778;48.962;9.018;2023-03-01T11:29:46;99494.28;;;7.36;49.97
21240;BME280;10778;48.962;9.018;2023-03-01T11:32:17;99494.34;;;7.35;50.56
21240;BME280;10778;48.962;9.018;2023-03-01T11:34:50;99492.50;;;7.74;50.37
21240;BME280;10778;48.962;9.018;2023-03-01T11:37:33;99484.22;;;8.40;50.18
21240;BME280;10778;48.962;9.018;2023-03-01T11:40:18;99486.22;;;8.61;48.94
21240;BME280;10778;48.962;9.018;2023-03-01T11:51:09;99468.00;;;8.71;48.94
21240;BME280;10778;48.962;9.018;2023-03-01T11:53:54;99453.75;;;8.51;49.64
21240;BME280;10778;48.962;9.018;2023-03-01T11:56:28;99453.81;;;8.74;48.59
21240;BME280;10778;48.962;9.018;2023-03-01T12:02:02;99452.09;;;8.25;49.58
21240;BME280;10778;48.962;9.018;2023-03-01T12:07:39;99446.34;;;7.23;51.81
21240;BME280;10778;48.962;9.018;2023-03-01T12:10:27;99438.84;;;8.16;50.38
21240;BME280;10778;48.962;9.018;2023-03-01T12:21:18;99417.31;;;7.88;50.66
21240;BME280;10778;48.962;9.018;2023-03-01T12:26:46;99392.47;;;8.40;49.45
21240;BME280;10778;48.962;9.018;2023-03-01T12:32:14;99397.78;;;8.28;50.29
21240;BME280;10778;48.962;9.018;2023-03-01T12:43:08;99386.75;;;9.04;49.06
21240;BME280;10778;48.962;9.018;2023-03-01T12:50:46;99369.53;;;8.31;49.59
21240;BME280;10778;48.962;9.018;2023-03-01T12:53:24;99372.56;;;8.95;49.41
21240;BME280;10778;48.962;9.018;2023-03-01T12:55:53;99368.16;;;8.73;48.60
21240;BME280;10778;48.962;9.018;2023-03-01T12:58:33;99362.34;;;8.58;49.04
21240;BME280;10778;48.962;9.018;2023-03-01T13:06:25;99344.69;;;8.71;49.45
21240;BME280;10778;48.962;9.018;2023-03-01T13:08:59;99351.38;;;8.75;50.19
21240;BME280;10778;48.962;9.018;2023-03-01T13:11:30;99352.06;;;8.77;48.68
21240;BME280;10778;48.962;9.018;2023-03-01T13:16:57;99353.72;;;8.44;49.43
21240;BME280;10778;48.962;9.018;2023-03-01T13:19:25;99345.19;;;8.53;50.16
21240;BME280;10778;48.962;9.018;2023-03-01T13:21:53;99348.22;;;8.47;50.42
21240;BME280;10778;48.962;9.018;2023-03-01T13:24:33;99340.81;;;8.30;50.29
21240;BME280;10778;48.962;9.018;2023-03-01T13:27:09;99337.94;;;9.24;49.97
21240;BME280;10778;48.962;9.018;2023-03-01T13:29:53;99325.88;;;9.21;49.09
21240;BME280;10778;48.962;9.018;2023-03-01T13:32:21;99328.97;;;8.82;48.86
21240;BME280;10778;48.962;9.018;2023-03-01T13:34:49;99330.72;;;8.93;49.83
21240;BME280;10778;48.962;9.018;2023-03-01T13:37:21;99323.41;;;9.08;48.64
21240;BME280;10778;48.962;9.018;2023-03-01T13:39:48;99320.41;;;9.57;49.14
21240;BME280;10778;48.962;9.018;2023-03-01T13:42:37;99315.78;;;9.17;48.46
21240;BME280;10778;48.962;9.018;2023-03-01T13:45:16;99318.63;;;9.14;49.58
21240;BME280;10778;48.962;9.018;2023-03-01T13:47:44;99313.66;;;9.43;48.39
21240;BME280;10778;48.962;9.018;2023-03-01T13:50:19;99317.28;;;9.19;49.40
21240;BME280;10778;48.962;9.018;2023-03-01T13:55:24;99320.72;;;9.31;48.48
21240;BME280;10778;48.962;9.018;2023-03-01T13:57:57;99309.41;;;9.19;48.60
21240;BME280;10778;48.962;9.018;2023-03-01T14:00:35;99318.41;;;9.05;49.18
21240;BME280;10778;48.962;9.018;2023-03-01T14:03:15;99314.06;;;9.27;49.13
21240;BME280;10778;48.962;9.018;2023-03-01T14:05:56;99311.69;;;9.24;48.96
21240;BME280;10778;48.962;9.018;2023-03-01T14:08:26;99311.84;;;9.44;47.49
21240;BME280;10778;48.962;9.018;2023-03-01T14:11:22;99313.28;;;9.04;49.61
21240;BME280;10778;48.962;9.018;2023-03-01T14:17:03;99305.56;;;9.23;48.78
21240;BME280;10778;48.962;9.018;2023-03-01T14:19:34;99301.97;;;8.92;48.74
21240;BME280;10778;48.962;9.018;2023-03-01T14:22:22;99289.88;;;9.12;48.71
21240;BME280;10778;48.962;9.018;2023-03-01T14:24:56;99301.63;;;8.28;50.51
21240;BME280;10778;48.962;9.018;2023-03-01T14:27:26;99294.41;;;8.54;49.94
21240;BME280;10778;48.962;9.018;2023-03-01T14:29:58;99291.16;;;8.51;49.63
21240;BME280;10778;48.962;9.018;2023-03-01T14:32:27;99296.75;;;8.23;50.71
21240;BME280;10778;48.962;9.018;2023-03-01T14:34:53;99299.03;;;8.74;49.62
21240;BME280;10778;48.962;9.018;2023-03-01T14:39:56;99300.84;;;9.06;49.70
21240;BME280;10778;48.962;9.018;2023-03-01T14:42:25;99307.66;;;9.20;49.03
21240;BME280;10778;48.962;9.018;2023-03-01T14:44:54;99314.03;;;8.94;49.25
21240;BME280;10778;48.962;9.018;2023-03-01T14:47:28;99320.94;;;8.95;49.55
21240;BME280;10778;48.962;9.018;2023-03-01T14:50:07;99323.47;;;8.51;50.40
21240;BME280;10778;48.962;9.018;2023-03-01T14:52:38;99330.22;;;8.31;49.57
21240;BME280;10778;48.962;9.018;2023-03-01T14:55:15;99318.06;;;8.19;51.32
21240;BME280;10778;48.962;9.018;2023-03-01T14:57:43;99328.31;;;8.33;50.52
21240;BME280;10778;48.962;9.018;2023-03-01T15:00:22;99333.94;;;8.40;50.41
21240;BME280;10778;48.962;9.018;2023-03-01T15:02:51;99332.25;;;8.39;50.41
21240;BME280;10778;48.962;9.018;2023-03-01T15:05:26;99326.09;;;8.63;50.44